Time;durP1;ratioP1;P1;durP2;ratioP2;P2;SDS_P1;SDS_P2;PMS_P1;PMS_P2;Temp;Humidity;BMP_temperature;BMP_pressure;BME280_temperature;BME280_humidity;BME280_pressure;Samples;Min_cycle;Max_cycle;Signal;HPM_P1;HPM_P2
2022/10/27 00:02:16;;;;;;;;;10.00;9.00;;;;;21.78;56.61;101617.96;105608;1291;20150;-50
2022/10/27 00:04:43;;;;;;;;;10.00;9.00;;;;;21.78;56.55;101619.15;105620;1297;19206;-54
2022/10/27 00:07:10;;;;;;;;;9.50;9.00;;;;;21.78;56.54;101613.16;105631;1282;20188;-52
2022/10/27 00:09:38;;;;;;;;;8.00;8.00;;;;;21.78;56.69;101614.62;105649;1282;20291;-52
2022/10/27 00:12:05;;;;;;;;;12.00;11.00;;;;;21.78;56.78;101621.89;105608;1282;21066;-52
2022/10/27 00:14:32;;;;;;;;;11.00;9.50;;;;;21.79;56.44;101623.48;105656;1297;19985;-52
2022/10/27 00:16:59;;;;;;;;;10.00;8.50;;;;;21.78;56.65;101631.02;105543;1297;22346;-56
2022/10/27 00:19:27;;;;;;;;;10.00;9.00;;;;;21.78;56.62;101635.36;105479;1282;21918;-52
2022/10/27 00:21:54;;;;;;;;;11.00;10.00;;;;;21.78;56.50;101633.17;105511;1284;20028;-53
2022/10/27 00:24:21;;;;;;;;;10.00;10.00;;;;;21.79;56.29;101630.00;105344;1289;18583;-52
2022/10/27 00:26:49;;;;;;;;;11.00;11.00;;;;;21.78;56.43;101631.74;105388;1289;21014;-56
2022/10/27 00:29:16;;;;;;;;;11.00;10.00;;;;;21.77;56.59;101630.61;105577;1297;18970;-53
2022/10/27 00:31:43;;;;;;;;;10.00;9.00;;;;;21.76;56.42;101633.94;105426;1292;18684;-52
2022/10/27 00:34:10;;;;;;;;;12.50;9.50;;;;;21.76;56.56;101638.57;105481;1291;19403;-52
2022/10/27 00:36:38;;;;;;;;;12.00;9.00;;;;;21.77;56.48;101641.30;105524;1291;20070;-52
2022/10/27 00:39:05;;;;;;;;;12.00;10.00;;;;;21.77;56.64;101635.16;105461;1297;18881;-52
2022/10/27 00:41:32;;;;;;;;;8.00;8.00;;;;;21.77;56.49;101628.09;105561;1297;19413;-54
2022/10/27 00:43:59;;;;;;;;;10.00;9.00;;;;;21.76;56.45;101631.11;105500;1275;19987;-54
2022/10/27 00:46:27;;;;;;;;;13.00;9.00;;;;;21.77;56.41;101628.83;105483;1282;20321;-52
2022/10/27 00:48:54;;;;;;;;;17.00;13.50;;;;;21.77;56.18;101625.35;105527;1299;22233;-54
2022/10/27 00:51:21;;;;;;;;;16.00;13.00;;;;;21.77;56.15;101621.91;105463;1306;18876;-51
2022/10/27 00:53:48;;;;;;;;;9.00;9.00;;;;;21.77;56.28;101625.33;105623;1297;18604;-57
2022/10/27 00:56:16;;;;;;;;;;;;;;;21.75;56.24;101632.39;105527;1298;21041;-55
2022/10/27 00:58:44;;;;;;;;;12.00;10.00;;;;;21.75;56.32;101626.42;105763;1279;19738;-51
2022/10/27 01:01:11;;;;;;;;;9.00;9.00;;;;;21.75;56.14;101624.23;105784;1300;18932;-53
2022/10/27 01:03:38;;;;;;;;;9.50;8.50;;;;;21.75;56.12;101625.58;105805;1294;21082;-51
2022/10/27 01:06:05;;;;;;;;;8.50;7.00;;;;;21.74;55.96;101622.39;105772;1279;19911;-50
2022/10/27 01:08:33;;;;;;;;;8.00;8.00;;;;;21.75;56.34;101621.13;105763;1295;18825;-53
2022/10/27 01:11:00;;;;;;;;;10.00;9.00;;;;;21.75;56.16;101615.91;105771;1286;21069;-54
2022/10/27 01:13:27;;;;;;;;;11.00;9.50;;;;;21.75;56.37;101619.73;105756;1276;23960;-52
2022/10/27 01:15:54;;;;;;;;;10.00;10.00;;;;;21.75;56.10;101621.00;105733;1297;18870;-50
2022/10/27 01:18:21;;;;;;;;;12.00;10.00;;;;;21.74;56.15;101625.40;105747;1279;19177;-51
2022/10/27 01:20:49;;;;;;;;;9.00;9.00;;;;;21.75;56.10;101624.86;105781;1276;20152;-51
2022/10/27 01:23:16;;;;;;;;;8.00;8.00;;;;;21.75;56.18;101626.13;105802;1281;20059;-53
2022/10/27 01:25:43;;;;;;;;;10.00;10.00;;;;;21.74;56.09;101624.92;105754;1288;20809;-50
2022/10/27 01:28:11;;;;;;;;;11.00;10.00;;;;;21.73;56.14;101620.15;105782;1288;18430;-53
2022/10/27 01:30:38;;;;;;;;;8.50;8.00;;;;;21.72;56.24;101619.88;105792;1294;18897;-53
2022/10/27 01:33:05;;;;;;;;;9.00;8.00;;;;;21.72;56.26;101624.06;105781;1279;20966;-51
2022/10/27 01:35:32;;;;;;;;;9.50;8.50;;;;;21.73;56.39;101620.69;105819;1285;20202;-50
2022/10/27 01:38:00;;;;;;;;;11.00;10.00;;;;;21.72;56.12;101618.55;105785;1278;22781;-50
2022/10/27 01:40:27;;;;;;;;;8.00;8.00;;;;;21.73;56.20;101623.35;105760;1271;22216;-50
2022/10/27 01:42:54;;;;;;;;;9.50;9.00;;;;;21.72;56.06;101623.66;105754;1278;20136;-51
2022/10/27 01:45:21;;;;;;;;;9.00;9.00;;;;;21.72;56.11;101626.77;105826;1286;18419;-52
2022/10/27 01:47:49;;;;;;;;;9.00;9.00;;;;;21.72;56.13;101624.58;105817;1287;21032;-51
2022/10/27 01:50:16;;;;;;;;;10.00;10.00;;;;;21.74;56.16;101625.89;105811;1280;19757;-52
2022/10/27 01:52:43;;;;;;;;;9.00;8.00;;;;;21.72;56.11;101622.91;105809;1294;20418;-53
2022/10/27 01:55:10;;;;;;;;;10.00;9.00;;;;;21.72;56.07;101622.80;105813;1294;20752;-53
2022/10/27 01:57:38;;;;;;;;;8.00;6.00;;;;;21.71;56.17;101627.38;105775;1276;21773;-51
2022/10/27 02:00:05;;;;;;;;;6.00;6.00;;;;;21.71;56.24;101626.52;105781;1294;18685;-50
2022/10/27 02:02:32;;;;;;;;;10.00;10.00;;;;;21.71;56.13;101627.41;105820;1288;20922;-51
2022/10/27 02:05:00;;;;;;;;;8.50;8.50;;;;;21.71;56.07;101630.82;105776;1272;18411;-51
2022/10/27 02:07:27;;;;;;;;;9.00;8.00;;;;;21.72;56.25;101625.36;105819;1278;18529;-54
2022/10/27 02:09:54;;;;;;;;;10.00;8.00;;;;;21.71;56.17;101622.88;105829;1294;19628;-53
2022/10/27 02:12:22;;;;;;;;;8.00;8.00;;;;;21.71;56.06;101617.96;105799;1294;19581;-52
2022/10/27 02:14:49;;;;;;;;;9.50;9.00;;;;;21.70;56.03;101613.89;105918;1297;18803;-51
2022/10/27 02:17:16;;;;;;;;;10.00;8.00;;;;;21.70;56.12;101613.32;105833;1279;19722;-52
2022/10/27 02:19:43;;;;;;;;;8.50;8.00;;;;;21.71;56.02;101617.08;105818;1300;22836;-52
2022/10/27 02:22:11;;;;;;;;;8.00;8.00;;;;;21.71;56.05;101614.17;105806;1279;21532;-52
2022/10/27 02:24:38;;;;;;;;;10.00;9.00;;;;;21.71;56.08;101614.31;105813;1294;22308;-54
2022/10/27 02:27:05;;;;;;;;;8.00;6.00;;;;;21.71;56.15;101615.36;105757;1289;18473;-54
2022/10/27 02:29:32;;;;;;;;;8.00;8.00;;;;;21.70;56.06;101613.66;105817;1294;20174;-54
2022/10/27 02:32:00;;;;;;;;;9.50;8.00;;;;;21.70;56.04;101612.75;105780;1297;19208;-52
2022/10/27 02:34:27;;;;;;;;;9.00;8.00;;;;;21.70;56.34;101611.33;105816;1272;18471;-53
2022/10/27 02:36:54;;;;;;;;;8.00;8.00;;;;;21.70;56.10;101609.89;105815;1294;20179;-51
2022/10/27 02:39:21;;;;;;;;;8.00;8.00;;;;;21.70;55.97;101609.38;105776;1285;19421;-55
2022/10/27 02:41:49;;;;;;;;;6.00;6.00;;;;;21.70;56.12;101605.89;105941;1294;22440;-55
2022/10/27 02:44:16;;;;;;;;;9.00;7.00;;;;;21.71;55.97;101608.55;105812;1292;18655;-53
2022/10/27 02:46:43;;;;;;;;;6.00;6.00;;;;;21.70;55.78;101618.59;105813;1279;20848;-54
2022/10/27 02:49:10;;;;;;;;;10.00;10.00;;;;;21.71;55.90;101625.42;105796;1294;22188;-53
2022/10/27 02:51:37;;;;;;;;;9.00;8.00;;;;;21.71;55.74;101634.70;105784;1285;20438;-54
2022/10/27 02:54:05;;;;;;;;;8.50;8.50;;;;;21.69;55.85;101630.35;105827;1275;20976;-53
2022/10/27 02:56:32;;;;;;;;;8.00;7.00;;;;;21.68;55.79;101637.89;105865;1294;18288;-52
2022/10/27 02:58:59;;;;;;;;;7.00;7.00;;;;;21.68;55.73;101634.34;105818;1294;19821;-52
2022/10/27 03:01:26;;;;;;;;;12.00;10.00;;;;;21.67;55.78;101638.91;105784;1277;19574;-52
2022/10/27 03:03:54;;;;;;;;;9.00;8.00;;;;;21.67;55.59;101636.96;105825;1294;21050;-55
2022/10/27 03:06:21;;;;;;;;;10.00;9.00;;;;;21.67;55.43;101642.59;105728;1294;18988;-51
2022/10/27 03:08:48;;;;;;;;;10.00;9.00;;;;;21.68;55.33;101647.91;105880;1294;20689;-52
2022/10/27 03:11:15;;;;;;;;;10.00;9.00;;;;;21.67;55.57;101644.60;105831;1278;20239;-55
2022/10/27 03:13:43;;;;;;;;;9.00;9.00;;;;;21.66;55.44;101645.56;105838;1294;21667;-54
2022/10/27 03:16:10;;;;;;;;;8.50;8.00;;;;;21.66;55.28;101640.48;105813;1295;19321;-51
2022/10/27 03:18:37;;;;;;;;;10.00;9.00;;;;;21.66;55.29;101643.07;105814;1294;19616;-52
2022/10/27 03:21:05;;;;;;;;;9.50;9.50;;;;;21.66;55.37;101642.19;105832;1294;18551;-51
2022/10/27 03:23:32;;;;;;;;;10.00;9.50;;;;;21.66;55.29;101643.48;105873;1294;19298;-52
2022/10/27 03:25:59;;;;;;;;;;;;;;;21.65;55.38;101644.39;105839;1279;22567;-52
2022/10/27 03:28:29;;;;;;;;;9.00;8.00;;;;;21.65;55.36;101647.39;105804;1279;22824;-51
2022/10/27 03:30:56;;;;;;;;;9.00;9.00;;;;;21.65;55.20;101651.55;105812;1294;21504;-54
2022/10/27 03:33:23;;;;;;;;;8.00;8.00;;;;;21.65;55.14;101655.02;105751;1294;19606;-54
2022/10/27 03:35:51;;;;;;;;;9.00;9.00;;;;;21.64;55.26;101653.61;105957;1294;18712;-53
2022/10/27 03:38:18;;;;;;;;;10.00;9.00;;;;;21.65;55.23;101662.50;105838;1272;19255;-54
2022/10/27 03:40:45;;;;;;;;;10.00;9.00;;;;;21.64;55.02;101666.95;105821;1279;18552;-51
2022/10/27 03:43:12;;;;;;;;;10.00;10.00;;;;;21.64;55.23;101667.80;105824;1294;18757;-52
2022/10/27 03:45:40;;;;;;;;;;;;;;;21.64;55.12;101670.15;105812;1294;19191;-52
2022/10/27 03:48:07;;;;;;;;;8.00;8.00;;;;;21.64;55.15;101662.52;105804;1287;19969;-54
2022/10/27 03:50:34;;;;;;;;;9.00;9.00;;;;;21.63;54.91;101665.91;105871;1281;18581;-54
2022/10/27 03:53:02;;;;;;;;;12.00;9.00;;;;;21.63;54.97;101666.80;105814;1276;19654;-52
2022/10/27 03:55:29;;;;;;;;;10.00;9.00;;;;;21.62;54.83;101665.61;105827;1279;19663;-51
2022/10/27 03:57:57;;;;;;;;;12.00;9.50;;;;;21.63;54.80;101661.52;105793;1279;18590;-53
2022/10/27 04:00:24;;;;;;;;;11.00;10.00;;;;;21.64;54.90;101662.17;105779;1292;19738;-53
2022/10/27 04:02:52;;;;;;;;;10.00;9.00;;;;;21.63;54.90;101659.88;105834;1294;20056;-54
2022/10/27 04:05:19;;;;;;;;;10.00;10.00;;;;;21.62;54.84;101657.08;105774;1288;20954;-55
2022/10/27 04:07:46;;;;;;;;;12.00;9.00;;;;;21.62;54.82;101657.66;105793;1278;19301;-53
2022/10/27 04:10:14;;;;;;;;;9.00;9.00;;;;;21.62;54.68;101656.91;105805;1279;18936;-50
2022/10/27 04:12:41;;;;;;;;;9.00;9.00;;;;;21.62;54.65;101654.89;105773;1272;18568;-55
2022/10/27 04:15:08;;;;;;;;;10.00;10.00;;;;;21.61;54.52;101654.66;105792;1272;20699;-53
2022/10/27 04:17:35;;;;;;;;;9.00;9.00;;;;;21.61;54.60;101655.75;105835;1296;19790;-52
2022/10/27 04:20:03;;;;;;;;;9.00;9.00;;;;;21.61;54.48;101655.95;105786;1286;20147;-54
2022/10/27 04:22:30;;;;;;;;;10.00;10.00;;;;;21.61;54.40;101653.73;105806;1294;19637;-51
2022/10/27 04:24:57;;;;;;;;;9.00;9.00;;;;;21.60;54.38;101650.36;105777;1286;19671;-53
2022/10/27 04:27:24;;;;;;;;;14.00;10.00;;;;;21.60;54.48;101655.06;105758;1291;20212;-51
2022/10/27 04:29:52;;;;;;;;;10.00;9.50;;;;;21.60;54.46;101654.02;105810;1294;21078;-51
2022/10/27 04:32:19;;;;;;;;;10.00;10.00;;;;;21.60;54.63;101656.97;105748;1294;18492;-50
2022/10/27 04:34:46;;;;;;;;;8.00;8.00;;;;;21.59;54.54;101654.45;105806;1279;18800;-54
2022/10/27 04:37:13;;;;;;;;;10.00;10.00;;;;;21.60;54.56;101659.50;105805;1272;19492;-55
2022/10/27 04:39:41;;;;;;;;;10.00;9.00;;;;;21.59;54.42;101663.90;105780;1294;18363;-51
2022/10/27 04:42:08;;;;;;;;;10.00;9.50;;;;;21.59;54.46;101665.02;105841;1294;18752;-53
2022/10/27 04:44:35;;;;;;;;;8.50;8.50;;;;;21.58;54.35;101662.76;105824;1298;19468;-54
2022/10/27 04:47:02;;;;;;;;;10.00;10.00;;;;;21.59;54.34;101666.66;105794;1279;20158;-55
2022/10/27 04:49:30;;;;;;;;;9.50;8.00;;;;;21.58;54.36;101664.39;105809;1295;20356;-53
2022/10/27 04:51:57;;;;;;;;;12.00;10.00;;;;;21.58;54.30;101662.03;105837;1278;20837;-52
2022/10/27 04:54:25;;;;;;;;;14.00;13.00;;;;;21.59;54.16;101664.71;105782;1294;18514;-50
2022/10/27 04:56:52;;;;;;;;;9.33;9.00;;;;;21.59;54.33;101670.48;105784;1290;20257;-52
2022/10/27 04:59:19;;;;;;;;;12.67;12.00;;;;;21.59;54.28;101673.98;105787;1294;19299;-56
2022/10/27 05:01:46;;;;;;;;;13.50;12.50;;;;;21.58;54.26;101680.80;105769;1286;24031;-54
2022/10/27 05:04:14;;;;;;;;;10.00;9.50;;;;;21.58;54.43;101682.97;105771;1271;20060;-51
2022/10/27 05:06:41;;;;;;;;;16.00;14.00;;;;;21.57;54.18;101683.61;105794;1277;20949;-51
2022/10/27 05:09:08;;;;;;;;;14.00;14.00;;;;;21.57;54.25;101688.86;105805;1288;18834;-52
2022/10/27 05:11:35;;;;;;;;;12.00;12.00;;;;;21.57;54.33;101688.68;105773;1279;20373;-51
2022/10/27 05:14:03;;;;;;;;;13.00;13.00;;;;;21.55;54.07;101691.86;105788;1279;20728;-53
2022/10/27 05:16:30;;;;;;;;;14.00;14.00;;;;;21.57;54.04;101696.56;105773;1279;18795;-52
2022/10/27 05:18:57;;;;;;;;;19.00;13.00;;;;;21.58;53.87;101698.91;105788;1279;18942;-51
2022/10/27 05:21:25;;;;;;;;;16.00;14.00;;;;;21.59;53.62;101694.83;105760;1278;19619;-50
2022/10/27 05:23:52;;;;;;;;;9.00;9.00;;;;;21.62;53.72;101699.88;105755;1294;18488;-51
2022/10/27 05:26:19;;;;;;;;;15.50;15.00;;;;;21.64;53.87;101701.28;105540;1292;22790;-53
2022/10/27 05:28:46;;;;;;;;;12.00;12.00;;;;;21.64;54.08;101698.53;105726;1285;23085;-54
2022/10/27 05:31:14;;;;;;;;;16.00;16.00;;;;;21.66;54.24;101697.43;105724;1294;22115;-55
2022/10/27 05:33:41;;;;;;;;;16.00;15.00;;;;;21.65;54.26;101706.48;105757;1279;23455;-53
2022/10/27 05:36:08;;;;;;;;;20.00;17.00;;;;;21.60;54.39;101705.33;105772;1271;20763;-53
2022/10/27 05:38:37;;;;;;;;;17.00;16.00;;;;;21.60;54.31;101710.20;105810;1279;18497;-52
2022/10/27 05:41:04;;;;;;;;;22.00;20.00;;;;;21.63;54.43;101712.85;105704;1286;21597;-54
2022/10/27 05:43:31;;;;;;;;;18.00;18.00;;;;;21.65;54.31;101716.59;105749;1279;22618;-50
2022/10/27 05:45:58;;;;;;;;;16.00;15.00;;;;;21.66;54.30;101720.35;105746;1279;22836;-51
2022/10/27 05:48:26;;;;;;;;;19.00;16.00;;;;;21.65;54.37;101716.48;105770;1281;20026;-52
2022/10/27 05:50:53;;;;;;;;;17.00;17.00;;;;;21.63;54.26;101724.24;105790;1294;19646;-51
2022/10/27 05:53:20;;;;;;;;;18.00;17.00;;;;;21.62;54.13;101723.27;105804;1278;22278;-51
2022/10/27 05:55:48;;;;;;;;;18.00;17.00;;;;;21.63;54.27;101732.46;105715;1294;23061;-55
2022/10/27 05:58:15;;;;;;;;;16.00;16.00;;;;;21.61;54.37;101735.01;105774;1278;19615;-54
2022/10/27 06:00:42;;;;;;;;;15.00;14.00;;;;;21.63;54.34;101734.44;105644;1272;18494;-53
2022/10/27 06:03:09;;;;;;;;;18.00;16.50;;;;;21.67;54.60;101738.46;105635;1288;20423;-52
2022/10/27 06:05:37;;;;;;;;;17.00;16.00;;;;;21.67;54.85;101743.30;105842;1294;19308;-52
2022/10/27 06:08:04;;;;;;;;;20.00;18.00;;;;;21.68;54.62;101743.23;105752;1294;19584;-51
2022/10/27 06:10:31;;;;;;;;;13.00;13.00;;;;;21.68;54.63;101745.24;105689;1276;20349;-54
2022/10/27 06:12:58;;;;;;;;;16.00;16.00;;;;;21.67;54.80;101751.35;105674;1286;20895;-53
2022/10/27 06:15:26;;;;;;;;;19.00;15.50;;;;;21.67;54.79;101747.02;105758;1279;22641;-51
2022/10/27 06:17:53;;;;;;;;;17.00;14.00;;;;;21.67;54.87;101748.11;105702;1294;18689;-53
2022/10/27 06:20:20;;;;;;;;;14.00;13.50;;;;;21.69;54.82;101748.75;105642;1276;21768;-52
2022/10/27 06:22:48;;;;;;;;;15.00;15.00;;;;;21.72;54.76;101753.89;105741;1272;18460;-53
2022/10/27 06:25:15;;;;;;;;;13.50;13.50;;;;;21.72;54.53;101758.98;105703;1279;19152;-54
2022/10/27 06:27:42;;;;;;;;;17.00;15.50;;;;;21.73;54.78;101765.32;105667;1271;20946;-51
2022/10/27 06:30:10;;;;;;;;;15.50;13.50;;;;;21.72;54.83;101763.06;105728;1294;18460;-54
2022/10/27 06:32:37;;;;;;;;;24.00;22.00;;;;;21.70;54.81;101769.96;105742;1294;18872;-51
2022/10/27 06:35:04;;;;;;;;;17.00;16.00;;;;;21.74;54.71;101773.95;105663;1279;21171;-51
2022/10/27 06:37:31;;;;;;;;;14.00;14.00;;;;;21.75;54.65;101777.95;105682;1297;18684;-52
2022/10/27 06:39:59;;;;;;;;;22.00;19.50;;;;;21.75;54.75;101783.09;105597;1297;18743;-52
2022/10/27 06:42:27;;;;;;;;;15.50;15.00;;;;;21.71;54.35;101779.33;105693;1279;20955;-54
2022/10/27 06:44:54;;;;;;;;;;;;;;;21.68;54.15;101776.16;105725;1278;21463;-52
2022/10/27 06:47:21;;;;;;;;;18.00;16.00;;;;;21.71;54.31;101780.45;105716;1285;21442;-55
2022/10/27 06:49:49;;;;;;;;;17.00;17.00;;;;;21.74;54.35;101784.15;105763;1282;23185;-50
2022/10/27 06:52:16;;;;;;;;;16.00;16.00;;;;;21.78;54.18;101784.94;105716;1272;22577;-49
2022/10/27 06:54:43;;;;;;;;;21.00;21.00;;;;;21.80;54.38;101792.05;105710;1272;20611;-54
2022/10/27 06:57:10;;;;;;;;;20.00;18.00;;;;;21.74;53.96;101792.75;105724;1295;22161;-52
2022/10/27 06:59:38;;;;;;;;;14.00;14.00;;;;;21.73;53.93;101789.13;105775;1294;20207;-55
2022/10/27 07:02:05;;;;;;;;;21.00;19.00;;;;;21.75;53.84;101786.68;105693;1294;18787;-55
2022/10/27 07:04:32;;;;;;;;;20.00;18.00;;;;;21.78;53.85;101788.08;105697;1279;20704;-55
2022/10/27 07:07:00;;;;;;;;;17.00;16.00;;;;;21.83;53.68;101787.13;105748;1279;20255;-51
2022/10/27 07:09:27;;;;;;;;;14.00;14.00;;;;;21.86;53.63;101785.14;105728;1279;18620;-51
2022/10/27 07:11:54;;;;;;;;;12.50;12.50;;;;;21.90;53.91;101787.15;105679;1294;19274;-55
2022/10/27 07:14:21;;;;;;;;;13.50;13.00;;;;;21.91;53.98;101785.60;105648;1272;18818;-54
2022/10/27 07:16:49;;;;;;;;;14.67;13.33;;;;;21.94;53.97;101793.48;105739;1294;18908;-51
2022/10/27 07:19:16;;;;;;;;;14.00;14.00;;;;;21.97;54.28;101797.13;105740;1294;19604;-53
2022/10/27 07:21:43;;;;;;;;;;;;;;;21.99;54.43;101800.52;105723;1294;18846;-56
2022/10/27 07:24:10;;;;;;;;;14.00;13.50;;;;;22.03;54.44;101809.59;105720;1286;21025;-51
2022/10/27 07:26:38;;;;;;;;;13.00;11.00;;;;;22.06;54.57;101818.91;105787;1279;19489;-50
2022/10/27 07:29:05;;;;;;;;;13.00;13.00;;;;;22.09;54.73;101823.55;105744;1279;20351;-51
2022/10/27 07:31:32;;;;;;;;;13.00;12.00;;;;;22.10;54.63;101825.77;105744;1294;20346;-50
2022/10/27 07:33:59;;;;;;;;;17.50;17.00;;;;;22.10;54.80;101827.15;105783;1297;19660;-51
2022/10/27 07:36:27;;;;;;;;;12.50;12.50;;;;;22.10;54.69;101824.52;105760;1294;20285;-54
2022/10/27 07:38:54;;;;;;;;;12.50;12.50;;;;;22.11;54.80;101823.36;105759;1287;20072;-54
2022/10/27 07:41:21;;;;;;;;;15.00;14.00;;;;;22.14;54.87;101825.86;105777;1294;21045;-51
2022/10/27 07:43:49;;;;;;;;;17.00;17.00;;;;;22.08;54.61;101824.89;105800;1279;18496;-55
2022/10/27 07:46:16;;;;;;;;;34.00;33.00;;;;;22.01;54.16;101823.27;105734;1279;18786;-55
2022/10/27 07:48:43;;;;;;;;;32.00;26.50;;;;;21.95;52.95;101820.66;105696;1279;20937;-52
2022/10/27 07:51:10;;;;;;;;;26.50;23.50;;;;;21.95;52.56;101820.48;105696;1294;20283;-53
2022/10/27 07:53:38;;;;;;;;;25.50;23.00;;;;;22.00;52.58;101821.45;105630;1287;20269;-51
2022/10/27 07:56:05;;;;;;;;;23.50;22.50;;;;;22.07;52.45;101821.75;105714;1279;23132;-53
2022/10/27 07:58:32;;;;;;;;;26.00;23.00;;;;;22.13;52.26;101823.73;105708;1275;18655;-52
2022/10/27 08:01:02;;;;;;;;;27.00;23.00;;;;;22.16;52.33;101823.23;105545;1279;159506;-51
2022/10/27 08:03:30;;;;;;;;;25.00;22.00;;;;;22.19;52.53;101825.83;105642;1289;19660;-53
2022/10/27 08:05:57;;;;;;;;;22.50;21.50;;;;;22.22;52.74;101825.38;105765;1294;20249;-51
2022/10/27 08:08:25;;;;;;;;;23.00;21.00;;;;;22.24;52.51;101828.37;105699;1286;23792;-51
2022/10/27 08:10:52;;;;;;;;;22.00;19.00;;;;;22.27;52.75;101830.13;105737;1294;19612;-50
2022/10/27 08:13:19;;;;;;;;;21.00;19.00;;;;;22.28;52.75;101828.91;105740;1294;18562;-50
2022/10/27 08:15:46;;;;;;;;;22.00;18.00;;;;;22.31;52.95;101832.59;105732;1278;20275;-50
2022/10/27 08:18:14;;;;;;;;;17.00;17.00;;;;;22.33;52.98;101831.78;105763;1279;20844;-49
2022/10/27 08:20:41;;;;;;;;;16.00;15.00;;;;;22.36;53.18;101835.13;105839;1286;22788;-51
2022/10/27 08:23:09;;;;;;;;;16.00;15.00;;;;;22.40;53.52;101833.08;105725;1272;18923;-51
2022/10/27 08:25:36;;;;;;;;;15.50;14.50;;;;;22.42;53.66;101833.06;105762;1279;20708;-52
2022/10/27 08:28:03;;;;;;;;;15.00;14.00;;;;;22.44;53.78;101835.64;105750;1294;20331;-53
2022/10/27 08:30:31;;;;;;;;;17.50;17.00;;;;;22.47;53.98;101838.73;105821;1301;18827;-51
2022/10/27 08:32:58;;;;;;;;;18.50;16.00;;;;;22.51;53.83;101845.61;105773;1286;20981;-57
2022/10/27 08:35:25;;;;;;;;;15.00;15.00;;;;;22.54;53.88;101854.52;105731;1272;22698;-54
2022/10/27 08:37:52;;;;;;;;;17.00;17.00;;;;;22.57;53.90;101856.58;105769;1279;20289;-56
2022/10/27 08:40:20;;;;;;;;;18.00;17.00;;;;;22.60;53.89;101858.34;105727;1271;23723;-52
2022/10/27 08:42:47;;;;;;;;;18.00;17.00;;;;;22.63;53.91;101864.02;105736;1279;22625;-54
2022/10/27 08:45:14;;;;;;;;;14.00;13.50;;;;;22.63;53.70;101866.17;105709;1276;22309;-54
2022/10/27 08:47:42;;;;;;;;;30.00;24.00;;;;;22.57;53.64;101861.88;105729;1292;19716;-52
2022/10/27 08:50:09;;;;;;;;;23.50;22.00;;;;;22.48;53.18;101865.17;105720;1272;23719;-53
2022/10/27 08:52:36;;;;;;;;;26.00;23.00;;;;;22.51;53.12;101865.22;105706;1286;23963;-55
2022/10/27 08:55:04;;;;;;;;;23.00;22.00;;;;;22.55;52.88;101875.60;105692;1294;19272;-52
2022/10/27 08:57:31;;;;;;;;;24.00;22.00;;;;;22.56;53.07;101877.11;105681;1279;20211;-52
2022/10/27 08:59:58;;;;;;;;;19.00;17.00;;;;;22.55;53.14;101877.95;105754;1271;20476;-53
2022/10/27 09:02:25;;;;;;;;;;;;;;;22.52;53.32;101881.36;105698;1279;19616;-52
2022/10/27 09:04:53;;;;;;;;;;;;;;;22.50;53.47;101880.69;105599;1272;18491;-55
2022/10/27 09:07:20;;;;;;;;;;;;;;;22.48;53.79;101877.98;105726;1279;18326;-55
2022/10/27 09:09:47;;;;;;;;;22.00;18.00;;;;;22.47;53.83;101876.44;105730;1294;19461;-54
2022/10/27 09:12:14;;;;;;;;;21.00;19.00;;;;;22.45;53.96;101879.42;105720;1294;18524;-55
2022/10/27 09:14:44;;;;;;;;;22.50;22.00;;;;;22.40;53.84;101878.30;105732;1279;22800;-55
2022/10/27 09:17:11;;;;;;;;;15.00;15.00;;;;;22.39;53.85;101878.49;105680;1286;22518;-52
2022/10/27 09:19:38;;;;;;;;;17.50;15.00;;;;;22.39;53.83;101874.84;105635;1279;19856;-52
2022/10/27 09:22:06;;;;;;;;;17.50;16.00;;;;;22.41;53.98;101877.48;105691;1294;18585;-54
2022/10/27 09:24:33;;;;;;;;;21.00;19.50;;;;;22.39;54.00;101879.42;105589;1271;19517;-50
2022/10/27 09:27:01;;;;;;;;;23.00;22.00;;;;;22.38;54.01;101888.15;105615;1279;20476;-52
2022/10/27 09:29:28;;;;;;;;;24.00;22.00;;;;;22.32;53.83;101884.53;105678;1285;18919;-50
2022/10/27 09:31:56;;;;;;;;;40.00;34.00;;;;;22.27;53.79;101878.20;105689;1279;21103;-51
2022/10/27 09:34:23;;;;;;;;;28.00;23.00;;;;;22.23;53.42;101881.87;105667;1279;18692;-53
2022/10/27 09:36:50;;;;;;;;;30.00;26.00;;;;;22.21;53.55;101885.13;105677;1292;20347;-52
2022/10/27 09:39:18;;;;;;;;;33.00;29.00;;;;;22.15;53.38;101881.80;105705;1294;23942;-51
2022/10/27 09:41:45;;;;;;;;;42.00;34.00;;;;;22.10;53.29;101885.71;105760;1271;18626;-53
2022/10/27 09:44:12;;;;;;;;;41.00;35.00;;;;;22.11;53.34;101885.59;105591;1279;18652;-54
2022/10/27 09:46:40;;;;;;;;;30.00;26.00;;;;;22.11;53.25;101887.98;105643;1279;19586;-51
2022/10/27 09:49:07;;;;;;;;;30.00;27.00;;;;;22.12;53.21;101893.33;105697;1285;20448;-50
2022/10/27 09:51:34;;;;;;;;;37.50;34.00;;;;;22.12;53.17;101894.60;105705;1271;18585;-53
2022/10/27 09:54:02;;;;;;;;;34.00;33.50;;;;;22.10;53.27;101895.52;105491;1286;19679;-56
2022/10/27 09:56:30;;;;;;;;;31.00;27.00;;;;;22.11;53.38;101897.27;105540;1294;23358;-55
2022/10/27 09:58:57;;;;;;;;;38.00;29.00;;;;;22.10;53.44;101897.88;105575;1294;19728;-50
2022/10/27 10:01:24;;;;;;;;;37.50;30.00;;;;;22.11;53.48;101902.21;105616;1279;21855;-52
2022/10/27 10:03:52;;;;;;;;;33.00;30.00;;;;;22.10;53.57;101897.19;105558;1272;18668;-55
2022/10/27 10:06:19;;;;;;;;;31.00;30.00;;;;;22.09;53.59;101892.73;105634;1294;22641;-53
2022/10/27 10:08:46;;;;;;;;;35.00;30.00;;;;;22.09;53.60;101893.30;105645;1301;22339;-51
2022/10/27 10:11:13;;;;;;;;;35.50;30.50;;;;;22.07;53.67;101889.86;105680;1293;18698;-56
2022/10/27 10:13:41;;;;;;;;;36.00;33.00;;;;;22.06;53.78;101889.98;105382;1275;18861;-50
2022/10/27 10:16:08;;;;;;;;;30.00;27.50;;;;;22.05;53.61;101894.05;105339;1272;20816;-51
2022/10/27 10:18:35;;;;;;;;;30.00;29.00;;;;;22.03;53.66;101891.50;105439;1279;18650;-51
2022/10/27 10:21:03;;;;;;;;;;;;;;;22.02;53.69;101892.92;105739;1294;22231;-51
2022/10/27 10:23:30;;;;;;;;;37.00;37.00;;;;;22.02;53.73;101890.95;105734;1279;22838;-52
2022/10/27 10:25:57;;;;;;;;;27.50;26.00;;;;;22.03;53.75;101891.39;105709;1287;21195;-50
2022/10/27 10:28:25;;;;;;;;;35.50;34.00;;;;;22.03;53.68;101892.83;105569;1285;20302;-56
2022/10/27 10:30:52;;;;;;;;;36.00;30.00;;;;;22.02;53.83;101888.73;105390;1277;21113;-51
2022/10/27 10:33:19;;;;;;;;;34.00;32.00;;;;;22.03;53.85;101889.92;105470;1285;22866;-52
2022/10/27 10:35:46;;;;;;;;;38.00;35.00;;;;;22.00;53.92;101885.44;105360;1278;23885;-52
2022/10/27 10:38:14;;;;;;;;;;;;;;;21.99;53.98;101885.94;105323;1272;21098;-55
2022/10/27 10:40:41;;;;;;;;;31.00;25.50;;;;;21.99;54.29;101886.09;105342;1272;20099;-54
2022/10/27 10:43:09;;;;;;;;;29.00;25.00;;;;;21.99;54.23;101879.04;105353;1272;18599;-50
2022/10/27 10:45:36;;;;;;;;;30.00;28.00;;;;;21.98;54.11;101878.63;105383;1278;19892;-53
2022/10/27 10:48:04;;;;;;;;;30.00;30.00;;;;;21.97;54.20;101876.30;105378;1278;20210;-52
2022/10/27 10:50:31;;;;;;;;;34.50;29.50;;;;;21.97;54.25;101876.84;105322;1278;20150;-55
2022/10/27 10:52:58;;;;;;;;;37.00;33.00;;;;;21.97;54.34;101876.20;105393;1282;19291;-50
2022/10/27 10:55:25;;;;;;;;;32.00;26.50;;;;;21.95;54.46;101881.61;105733;1279;18733;-52
2022/10/27 10:57:53;;;;;;;;;37.00;31.00;;;;;21.95;54.49;101884.60;105729;1285;22274;-51
2022/10/27 11:00:20;;;;;;;;;29.00;27.00;;;;;21.94;54.56;101885.20;105749;1288;20774;-54
2022/10/27 11:02:47;;;;;;;;;34.00;31.00;;;;;21.94;54.46;101884.69;105347;1272;18849;-53
2022/10/27 11:05:15;;;;;;;;;35.00;31.00;;;;;21.93;54.66;101884.89;105331;1278;18634;-51
2022/10/27 11:07:42;;;;;;;;;29.00;26.00;;;;;21.93;54.71;101893.45;105630;1279;19382;-51
2022/10/27 11:10:09;;;;;;;;;27.00;23.00;;;;;21.92;54.59;101889.55;105736;1281;20263;-52